createdAt,value
2017-12-04T00:01:22.647Z,17.83
2017-12-04T00:03:50.329Z,16.97
2017-12-04T00:06:17.947Z,17.33
2017-12-04T00:08:45.574Z,15.03
2017-12-04T00:11:13.668Z,15.00
2017-12-04T00:13:41.301Z,12.17
2017-12-04T00:16:08.954Z,13.17
2017-12-04T00:18:37.561Z,14.57
2017-12-04T00:21:05.179Z,13.67
2017-12-04T00:23:32.810Z,13.60
2017-12-04T00:26:00.487Z,13.43
2017-12-04T00:28:28.111Z,15.40
2017-12-04T00:30:55.737Z,14.23
2017-12-04T00:33:23.435Z,16.23
2017-12-04T00:35:51.375Z,12.57
2017-12-04T00:38:18.994Z,16.40
2017-12-04T00:40:46.680Z,18.80
2017-12-04T00:43:14.296Z,13.30
2017-12-04T00:45:41.927Z,12.03
2017-12-04T00:48:09.611Z,16.47
2017-12-04T00:53:20.864Z,17.80
2017-12-04T00:55:48.489Z,17.67
2017-12-04T00:58:16.832Z,15.77
2017-12-04T01:00:44.663Z,18.33
2017-12-04T01:03:12.294Z,17.53
2017-12-04T01:05:39.915Z,15.53
2017-12-04T01:08:07.612Z,16.03
2017-12-04T01:10:35.238Z,15.90
2017-12-04T01:13:02.871Z,15.90
2017-12-04T01:15:30.865Z,14.37
2017-12-04T01:17:58.496Z,14.13
2017-12-04T01:20:26.120Z,17.37
2017-12-04T01:22:53.812Z,16.13
2017-12-04T01:25:21.444Z,15.53
2017-12-04T01:27:49.082Z,17.73
2017-12-04T01:30:17.135Z,16.33
2017-12-04T01:32:44.769Z,17.77
2017-12-04T01:35:12.395Z,19.03
2017-12-04T01:37:40.086Z,16.63
2017-12-04T01:40:07.712Z,18.90
2017-12-04T01:42:35.332Z,17.63
2017-12-04T01:45:03.019Z,16.67
2017-12-04T01:47:30.641Z,16.70
2017-12-04T01:49:58.269Z,14.10
2017-12-04T01:52:25.945Z,19.17
2017-12-04T01:54:53.586Z,17.07
2017-12-04T01:57:21.203Z,15.73
2017-12-04T01:59:49.068Z,19.77
2017-12-04T02:02:16.695Z,19.93
2017-12-04T02:04:46.372Z,16.83
2017-12-04T02:07:13.860Z,18.47
2017-12-04T02:09:41.487Z,17.03
2017-12-04T02:12:09.109Z,18.00
2017-12-04T02:14:36.937Z,16.87
2017-12-04T02:17:04.563Z,15.30
2017-12-04T02:22:11.346Z,18.60
2017-12-04T02:27:18.106Z,16.23
2017-12-04T02:29:45.730Z,17.30
2017-12-04T02:32:13.356Z,14.97
2017-12-04T02:34:41.054Z,18.60
2017-12-04T02:37:08.694Z,18.23
2017-12-04T02:39:36.334Z,15.97
2017-12-04T02:42:04.263Z,17.90
2017-12-04T02:44:31.939Z,16.27
2017-12-04T02:46:59.564Z,18.30
2017-12-04T02:49:27.241Z,16.73
2017-12-04T02:51:54.872Z,18.17
2017-12-04T02:54:22.491Z,16.63
2017-12-04T02:56:50.344Z,13.63
2017-12-04T02:59:17.964Z,15.00
2017-12-04T03:01:45.588Z,15.83
2017-12-04T03:04:13.519Z,17.20
2017-12-04T03:06:41.149Z,13.83
2017-12-04T03:09:08.782Z,15.53
2017-12-04T03:11:36.616Z,17.07
2017-12-04T03:14:04.251Z,20.90
2017-12-04T03:16:31.881Z,18.80
2017-12-04T03:18:59.904Z,18.30
2017-12-04T03:21:27.536Z,18.53
2017-12-04T03:23:55.165Z,15.83
2017-12-04T03:26:24.115Z,17.20
2017-12-04T03:28:51.740Z,16.40
2017-12-04T03:31:19.371Z,18.70
2017-12-04T03:33:47.053Z,16.80
2017-12-04T03:36:14.671Z,16.63
2017-12-04T03:38:42.302Z,16.87
2017-12-04T03:41:10.125Z,16.90
2017-12-04T03:43:37.753Z,14.30
2017-12-04T03:46:05.376Z,14.37
2017-12-04T03:48:33.363Z,14.50
2017-12-04T03:53:40.144Z,17.17
2017-12-04T03:56:07.789Z,16.23
2017-12-04T03:58:35.419Z,17.90
2017-12-04T04:01:03.548Z,16.00
2017-12-04T04:03:31.175Z,14.90
2017-12-04T04:05:58.803Z,13.93
2017-12-04T04:08:26.480Z,17.47
2017-12-04T04:10:54.105Z,14.50
2017-12-04T04:13:21.737Z,16.10
2017-12-04T04:15:49.816Z,13.80
2017-12-04T04:18:17.446Z,17.90
2017-12-04T04:20:45.092Z,16.83
2017-12-04T04:23:12.769Z,16.17
2017-12-04T04:25:40.389Z,21.30
2017-12-04T04:28:08.019Z,22.43
2017-12-04T04:30:37.610Z,18.50
2017-12-04T04:33:03.330Z,19.23
2017-12-04T04:35:30.955Z,18.13
2017-12-04T04:37:58.793Z,20.17
2017-12-04T04:40:26.417Z,18.70
2017-12-04T04:42:54.051Z,22.20
2017-12-04T04:45:21.779Z,19.93
2017-12-04T04:47:49.403Z,21.53
2017-12-04T04:50:17.031Z,17.37
2017-12-04T04:52:45.039Z,18.20
2017-12-04T04:55:12.651Z,21.27
2017-12-04T04:57:40.278Z,21.70
2017-12-04T05:00:07.960Z,18.20
2017-12-04T05:02:35.583Z,19.07
2017-12-04T05:05:03.212Z,19.23
2017-12-04T05:07:31.310Z,19.53
2017-12-04T05:09:58.924Z,16.27
2017-12-04T05:12:26.552Z,15.90
2017-12-04T05:14:54.241Z,16.03
2017-12-04T05:17:21.863Z,20.23
2017-12-04T05:22:28.784Z,24.40
2017-12-04T05:24:56.445Z,20.83
2017-12-04T05:27:24.047Z,16.87
2017-12-04T05:29:51.726Z,19.00
2017-12-04T05:32:19.355Z,23.13
2017-12-04T05:34:46.983Z,17.47
2017-12-04T05:37:14.900Z,17.43
2017-12-04T05:39:42.525Z,13.77
2017-12-04T05:42:10.148Z,18.80
2017-12-04T05:44:37.827Z,24.20
2017-12-04T05:47:05.454Z,28.43
2017-12-04T05:49:33.089Z,22.00
2017-12-04T05:52:00.925Z,21.17
2017-12-04T05:54:28.550Z,22.30
2017-12-04T05:56:56.178Z,21.70
2017-12-04T05:59:23.857Z,25.00
2017-12-04T06:01:52.310Z,24.83
2017-12-04T06:04:19.943Z,22.70
2017-12-04T06:06:47.764Z,22.67
2017-12-04T06:09:15.417Z,22.43
2017-12-04T06:11:43.445Z,23.17
2017-12-04T06:14:11.124Z,23.43
2017-12-04T06:16:39.118Z,26.13
2017-12-04T06:19:06.775Z,19.90
2017-12-04T06:21:34.563Z,23.43
2017-12-04T06:24:02.188Z,21.60
2017-12-04T06:26:29.816Z,22.20
2017-12-04T06:28:57.500Z,22.23
2017-12-04T06:31:25.132Z,24.10
2017-12-04T06:33:52.782Z,21.83
2017-12-04T06:36:20.438Z,24.80
2017-12-04T06:38:48.083Z,24.50
2017-12-04T06:41:15.691Z,29.90
2017-12-04T06:43:43.368Z,25.33
2017-12-04T06:48:50.467Z,26.00
2017-12-04T06:51:18.100Z,24.20
2017-12-04T06:53:45.729Z,22.40
2017-12-04T06:56:13.419Z,22.17
2017-12-04T06:58:41.036Z,23.57
2017-12-04T07:01:08.667Z,25.33
2017-12-04T07:03:36.355Z,23.13
2017-12-04T07:06:03.988Z,29.83
2017-12-04T07:08:31.617Z,24.20
2017-12-04T07:10:59.291Z,24.47
2017-12-04T07:13:26.924Z,28.43
2017-12-04T07:15:54.559Z,33.10
2017-12-04T07:18:23.257Z,30.23
2017-12-04T07:20:50.815Z,28.57
2017-12-04T07:23:18.445Z,32.67
2017-12-04T07:25:46.258Z,24.97
2017-12-04T07:28:14.726Z,25.17
2017-12-04T07:30:42.350Z,31.00
2017-12-04T07:33:10.028Z,26.50
2017-12-04T07:35:37.660Z,31.07
2017-12-04T07:38:05.362Z,41.97
2017-12-04T07:40:32.968Z,40.50
2017-12-04T07:43:00.603Z,45.23
2017-12-04T07:45:28.237Z,42.57
2017-12-04T07:47:56.165Z,50.30
2017-12-04T07:50:23.794Z,46.43
2017-12-04T07:52:51.423Z,39.37
2017-12-04T07:55:19.108Z,36.80
2017-12-04T07:57:46.728Z,39.53
2017-12-04T08:00:14.375Z,34.30
2017-12-04T08:02:42.437Z,46.10
2017-12-04T08:07:49.208Z,48.28
2017-12-04T08:10:16.832Z,34.37
2017-12-04T08:12:44.462Z,44.57
2017-12-04T08:15:12.312Z,41.47
2017-12-04T08:17:39.946Z,39.53
2017-12-04T08:20:07.559Z,40.77
2017-12-04T08:22:35.235Z,46.20
2017-12-04T08:25:03.658Z,40.43
2017-12-04T08:27:31.306Z,45.87
2017-12-04T08:29:59.195Z,40.23
2017-12-04T08:32:26.819Z,35.60
2017-12-04T08:34:54.452Z,44.40
2017-12-04T08:37:22.119Z,40.93
2017-12-04T08:39:49.743Z,33.50
2017-12-04T08:42:17.375Z,39.93
2017-12-04T08:44:45.073Z,38.73
2017-12-04T08:47:12.731Z,41.10
2017-12-04T08:49:41.157Z,37.60
2017-12-04T08:52:09.059Z,35.20
2017-12-04T08:54:36.986Z,34.50
2017-12-04T08:57:05.556Z,32.43
2017-12-04T08:59:33.244Z,36.67
2017-12-04T09:02:03.950Z,38.63
2017-12-04T09:04:39.654Z,34.97
2017-12-04T09:06:59.628Z,40.97
2017-12-04T09:09:27.259Z,36.73
2017-12-04T09:11:54.878Z,30.07
2017-12-04T09:14:22.555Z,28.93
2017-12-04T09:19:29.509Z,29.58
2017-12-04T09:21:57.131Z,29.30
2017-12-04T09:27:08.492Z,38.53
2017-12-04T09:29:36.091Z,34.87
2017-12-04T09:32:03.719Z,32.10
2017-12-04T09:34:31.752Z,28.73
2017-12-04T09:36:59.378Z,29.20
2017-12-04T09:39:27.942Z,32.43
2017-12-04T09:41:55.625Z,26.27
2017-12-04T09:44:23.255Z,26.70
2017-12-04T09:46:50.873Z,28.90
2017-12-04T09:49:18.708Z,25.57
2017-12-04T09:51:46.337Z,28.07
2017-12-04T09:54:13.952Z,26.37
2017-12-04T09:56:41.922Z,24.93
2017-12-04T09:59:10.375Z,21.33
2017-12-04T10:01:38.001Z,23.97
2017-12-04T10:04:05.691Z,24.90
2017-12-04T10:06:33.306Z,22.27
2017-12-04T10:09:01.650Z,24.23
2017-12-04T10:11:29.733Z,23.67
2017-12-04T10:13:57.357Z,24.47
2017-12-04T10:16:24.983Z,21.40
2017-12-04T10:18:52.674Z,26.73
2017-12-04T10:21:20.300Z,24.83
2017-12-04T10:23:47.915Z,16.93
2017-12-04T10:26:15.756Z,16.37
2017-12-04T10:28:43.378Z,17.17
2017-12-04T10:31:11.002Z,26.57
2017-12-04T10:33:38.832Z,19.30
2017-12-04T10:36:07.312Z,17.23
2017-12-04T10:38:34.945Z,18.80
2017-12-04T10:41:02.629Z,23.27
2017-12-04T10:43:30.259Z,23.40
2017-12-04T10:45:57.882Z,24.40
2017-12-04T10:48:25.712Z,25.17
2017-12-04T10:53:32.495Z,25.02
2017-12-04T10:56:00.933Z,21.93
2017-12-04T10:58:28.567Z,18.93
2017-12-04T11:00:57.275Z,16.27
2017-12-04T11:03:24.910Z,18.13
2017-12-04T11:05:52.544Z,21.80
2017-12-04T11:08:20.228Z,20.20
2017-12-04T11:10:48.798Z,23.80
2017-12-04T11:13:16.429Z,19.93
2017-12-04T11:15:44.472Z,21.87
2017-12-04T11:18:12.095Z,17.93
2017-12-04T11:20:39.715Z,13.87
2017-12-04T11:23:07.387Z,13.97
2017-12-04T11:28:15.878Z,25.30
2017-12-04T11:30:43.494Z,19.40
2017-12-04T11:33:11.126Z,15.50
2017-12-04T11:35:39.591Z,22.87
2017-12-04T11:38:07.214Z,26.07
2017-12-04T11:40:34.837Z,25.10
2017-12-04T11:43:02.521Z,22.07
2017-12-04T11:45:30.140Z,20.57
2017-12-04T11:47:57.762Z,34.17
2017-12-04T11:50:25.662Z,25.37
2017-12-04T11:52:53.300Z,23.67
2017-12-04T11:55:20.929Z,24.00
2017-12-04T11:57:48.638Z,26.17
2017-12-04T12:00:16.260Z,24.93
2017-12-04T12:02:43.990Z,21.53
2017-12-04T12:05:11.824Z,24.80
2017-12-04T12:07:39.440Z,28.07
2017-12-04T12:10:07.065Z,28.63
2017-12-04T12:12:34.891Z,26.83
2017-12-04T12:15:03.467Z,24.87
2017-12-04T12:17:31.105Z,20.47
2017-12-04T12:19:58.793Z,24.50
2017-12-04T12:22:26.416Z,21.60
2017-12-04T12:24:54.036Z,24.83
2017-12-04T12:27:21.876Z,19.00
2017-12-04T12:29:49.512Z,20.83
2017-12-04T12:32:17.131Z,19.77
2017-12-04T12:34:44.808Z,20.33
2017-12-04T12:37:12.432Z,21.77
2017-12-04T12:39:40.060Z,14.93
2017-12-04T12:42:07.879Z,14.77
2017-12-04T12:44:36.280Z,11.77
2017-12-04T12:47:03.899Z,12.87
2017-12-04T12:49:31.575Z,13.27
2017-12-04T12:51:59.198Z,14.20
2017-12-04T12:57:05.993Z,14.87
2017-12-04T12:59:34.544Z,13.90
2017-12-04T13:02:02.174Z,16.47
2017-12-04T13:04:30.004Z,16.00
2017-12-04T13:06:57.628Z,16.10
2017-12-04T13:09:25.262Z,20.47
2017-12-04T13:11:53.122Z,19.77
2017-12-04T13:14:20.741Z,18.30
2017-12-04T13:16:48.363Z,21.27
2017-12-04T13:19:16.042Z,19.37
2017-12-04T13:21:45.515Z,20.40
2017-12-04T13:24:13.139Z,20.40
2017-12-04T13:26:40.811Z,21.93
2017-12-04T13:29:08.443Z,14.37
2017-12-04T13:34:24.643Z,22.02
2017-12-04T13:36:52.276Z,16.73
2017-12-04T13:39:19.902Z,13.97
2017-12-04T13:41:47.571Z,16.67
2017-12-04T13:44:15.191Z,14.20
2017-12-04T13:46:42.814Z,18.37
2017-12-04T13:49:10.638Z,14.13
2017-12-04T13:51:38.261Z,13.13
2017-12-04T13:54:06.704Z,16.73
2017-12-04T13:56:34.375Z,13.27
2017-12-04T13:59:02.002Z,15.90
2017-12-04T14:01:29.630Z,13.87
2017-12-04T14:03:57.295Z,13.90
2017-12-04T14:06:24.915Z,12.60
2017-12-04T14:08:52.546Z,15.47
2017-12-04T14:11:20.486Z,16.07
2017-12-04T14:13:48.133Z,14.97
2017-12-04T14:16:15.727Z,14.73
2017-12-04T14:18:43.413Z,20.40
2017-12-04T14:21:11.041Z,17.10
2017-12-04T14:23:38.660Z,19.27
2017-12-04T14:26:06.496Z,17.07
2017-12-04T14:28:34.128Z,20.07
2017-12-04T14:31:01.756Z,18.00
2017-12-04T14:33:29.747Z,16.03
2017-12-04T14:35:57.374Z,18.67
2017-12-04T14:38:25.005Z,18.47
2017-12-04T14:40:52.832Z,23.20
2017-12-04T14:43:20.451Z,22.83
2017-12-04T14:45:48.091Z,18.73
2017-12-04T14:48:15.767Z,20.23
2017-12-04T14:53:24.756Z,24.00
2017-12-04T14:55:52.378Z,22.43
2017-12-04T14:58:19.997Z,21.47
2017-12-04T15:00:52.271Z,23.83
2017-12-04T15:05:58.674Z,24.70
2017-12-04T15:08:29.247Z,24.80
2017-12-04T15:10:56.883Z,25.60
2017-12-04T15:13:24.712Z,24.90
2017-12-04T15:15:52.335Z,23.67
2017-12-04T15:18:19.961Z,23.60
2017-12-04T15:20:47.640Z,23.37
2017-12-04T15:23:15.265Z,23.93
2017-12-04T15:25:42.887Z,30.67
2017-12-04T15:28:11.424Z,31.80
2017-12-04T15:30:39.052Z,25.43
2017-12-04T15:33:06.675Z,32.20
2017-12-04T15:35:34.379Z,32.87
2017-12-04T15:38:02.002Z,32.03
2017-12-04T15:40:29.622Z,36.20
2017-12-04T15:42:57.444Z,30.70
2017-12-04T15:45:25.372Z,35.07
2017-12-04T15:47:52.967Z,33.87
2017-12-04T15:50:20.649Z,30.53
2017-12-04T15:52:48.272Z,29.37
2017-12-04T15:55:15.896Z,28.10
2017-12-04T15:57:43.781Z,29.70
2017-12-04T16:00:11.413Z,28.40
2017-12-04T16:02:39.087Z,26.23
2017-12-04T16:05:06.914Z,28.47
2017-12-04T16:07:34.534Z,27.33
2017-12-04T16:10:02.169Z,26.00
2017-12-04T16:12:30.409Z,25.70
2017-12-04T16:14:57.918Z,27.03
2017-12-04T16:17:25.851Z,73.37
2017-12-04T16:19:53.655Z,54.13
2017-12-04T16:22:21.279Z,30.97
2017-12-04T16:24:49.722Z,30.00
2017-12-04T16:27:17.412Z,37.80
2017-12-04T16:29:45.031Z,31.30
2017-12-04T16:34:51.811Z,29.87
2017-12-04T16:37:19.428Z,27.87
2017-12-04T16:39:47.047Z,25.80
2017-12-04T16:42:18.883Z,22.53
2017-12-04T16:44:46.511Z,23.37
2017-12-04T16:47:14.137Z,22.70
2017-12-04T16:49:42.168Z,30.33
2017-12-04T16:52:09.796Z,33.17
2017-12-04T16:54:37.417Z,34.37
2017-12-04T16:57:05.102Z,33.17
2017-12-04T16:59:32.735Z,28.60
2017-12-04T17:02:00.380Z,31.73
2017-12-04T17:04:28.279Z,31.13
2017-12-04T17:06:55.905Z,32.47
2017-12-04T17:09:23.536Z,26.37
2017-12-04T17:11:51.421Z,30.87
2017-12-04T17:14:19.044Z,28.03
2017-12-04T17:16:47.022Z,28.90
2017-12-04T17:19:14.707Z,31.13
2017-12-04T17:21:42.341Z,30.93
2017-12-04T17:24:10.777Z,31.50
2017-12-04T17:26:39.848Z,38.50
2017-12-04T17:29:07.471Z,52.53
2017-12-04T17:31:35.092Z,45.23
2017-12-04T17:34:03.432Z,41.90
2017-12-04T17:36:31.060Z,38.70
2017-12-04T17:38:58.688Z,36.13
2017-12-04T17:41:26.408Z,49.37
2017-12-04T17:43:54.028Z,41.30
2017-12-04T17:46:21.692Z,38.43
2017-12-04T17:48:49.359Z,31.97
2017-12-04T17:51:16.991Z,34.87
2017-12-04T17:56:24.062Z,49.80
2017-12-04T17:58:51.687Z,34.40
2017-12-04T18:01:19.328Z,34.07
2017-12-04T18:03:47.128Z,33.00
2017-12-04T18:06:15.695Z,38.80
2017-12-04T18:08:48.034Z,46.67
2017-12-04T18:13:50.587Z,47.77
2017-12-04T18:18:58.410Z,62.30
2017-12-04T18:21:26.088Z,51.00
2017-12-04T18:26:32.852Z,49.88
2017-12-04T18:29:00.473Z,46.73
2017-12-04T18:31:28.104Z,43.60
2017-12-04T18:33:55.839Z,38.40
2017-12-04T18:36:23.465Z,41.17
2017-12-04T18:38:51.086Z,37.97
2017-12-04T18:43:59.524Z,45.28
2017-12-04T18:46:28.533Z,39.50
2017-12-04T18:48:56.785Z,42.57
2017-12-04T18:51:24.339Z,40.00
2017-12-04T18:53:52.033Z,40.67
2017-12-04T18:56:19.662Z,40.27
2017-12-04T18:58:47.284Z,39.60
2017-12-04T19:01:15.031Z,44.53
2017-12-04T19:03:42.622Z,37.30
2017-12-04T19:08:49.461Z,47.28
2017-12-04T19:11:17.114Z,42.10
2017-12-04T19:13:44.726Z,45.80
2017-12-04T19:16:12.608Z,55.77
2017-12-04T19:21:19.044Z,63.47
2017-12-04T19:23:46.687Z,50.00
2017-12-04T19:26:14.457Z,52.10
2017-12-04T19:31:24.956Z,54.47
2017-12-04T19:33:52.645Z,53.23
2017-12-04T19:36:20.264Z,58.57
2017-12-04T19:38:47.888Z,49.53
2017-12-04T19:41:15.595Z,46.93
2017-12-04T19:43:43.260Z,71.10
2017-12-04T19:46:10.924Z,52.07
2017-12-04T19:48:38.665Z,55.60
2017-12-04T19:51:06.302Z,52.20
2017-12-04T19:53:33.918Z,56.47
2017-12-04T19:56:01.628Z,62.23
2017-12-04T19:58:29.287Z,52.27
2017-12-04T20:03:36.577Z,78.75
2017-12-04T20:06:08.120Z,54.73
2017-12-04T20:08:40.363Z,52.43
2017-12-04T20:11:08.260Z,71.10
2017-12-04T20:13:36.375Z,63.77
2017-12-04T20:16:06.560Z,65.77
2017-12-04T20:18:32.332Z,72.70
2017-12-04T20:20:59.970Z,70.67
2017-12-04T20:23:32.084Z,73.30
2017-12-04T20:25:59.753Z,88.17
2017-12-04T20:28:27.383Z,71.30
2017-12-04T20:30:56.788Z,55.10
2017-12-04T20:33:24.400Z,57.13
2017-12-04T20:35:52.042Z,51.57
2017-12-04T20:38:19.747Z,61.43
2017-12-04T20:40:47.362Z,63.93
2017-12-04T20:43:15.012Z,65.50
2017-12-04T20:45:42.778Z,60.23
2017-12-04T20:50:49.298Z,74.35
2017-12-04T20:53:16.863Z,62.07
2017-12-04T20:55:45.789Z,56.30
2017-12-04T20:58:14.238Z,52.97
2017-12-04T21:00:41.825Z,58.53
2017-12-04T21:03:09.459Z,56.00
2017-12-04T21:05:37.416Z,52.97
2017-12-04T21:08:16.823Z,49.47
2017-12-04T21:10:56.383Z,59.77
2017-12-04T21:13:35.739Z,65.53
2017-12-04T21:18:51.880Z,90.87
2017-12-04T21:21:19.592Z,84.13
2017-12-04T21:23:47.219Z,77.03
2017-12-04T21:26:14.852Z,77.13
2017-12-04T21:28:42.545Z,73.50
2017-12-04T21:31:10.225Z,67.67
2017-12-04T21:33:37.852Z,58.30
2017-12-04T21:36:05.541Z,72.60
2017-12-04T21:38:33.190Z,70.57
2017-12-04T21:41:00.824Z,69.47
2017-12-04T21:43:29.225Z,72.20
2017-12-04T21:45:56.900Z,64.87
2017-12-04T21:48:24.556Z,56.73
2017-12-04T21:50:52.484Z,46.77
2017-12-04T21:53:19.953Z,44.57
2017-12-04T21:55:47.595Z,51.37
2017-12-04T21:58:15.303Z,49.63
2017-12-04T22:00:43.038Z,46.10
2017-12-04T22:05:49.506Z,57.15
2017-12-04T22:08:17.156Z,53.63
2017-12-04T22:10:44.797Z,39.30
2017-12-04T22:13:13.083Z,47.40
2017-12-04T22:15:40.879Z,55.93
2017-12-04T22:18:08.451Z,42.60
2017-12-04T22:20:36.158Z,43.27
2017-12-04T22:23:05.060Z,39.43
2017-12-04T22:25:32.732Z,41.57
2017-12-04T22:28:00.900Z,38.40
2017-12-04T22:30:29.121Z,38.00
2017-12-04T22:32:56.820Z,40.20
2017-12-04T22:35:24.963Z,41.23
2017-12-04T22:37:52.594Z,48.57
2017-12-04T22:40:20.224Z,49.87
2017-12-04T22:42:47.928Z,47.43
2017-12-04T22:45:15.578Z,48.33
2017-12-04T22:47:43.394Z,53.60
2017-12-04T22:50:11.170Z,54.60
2017-12-04T22:52:38.918Z,52.07
2017-12-04T22:55:06.562Z,45.00
2017-12-04T22:57:35.196Z,46.33
2017-12-04T23:00:03.007Z,41.03
2017-12-04T23:02:30.605Z,40.03
2017-12-04T23:04:58.378Z,39.97
2017-12-04T23:07:26.038Z,38.57
2017-12-04T23:12:35.243Z,64.87
2017-12-04T23:15:02.909Z,55.77
2017-12-04T23:17:30.541Z,50.33
2017-12-04T23:19:59.537Z,69.07
2017-12-04T23:25:05.143Z,54.23
2017-12-04T23:27:33.102Z,57.43
2017-12-04T23:30:00.745Z,51.13
2017-12-04T23:32:28.445Z,57.50
2017-12-04T23:34:56.080Z,66.23
2017-12-04T23:37:23.774Z,55.77
2017-12-04T23:42:31.557Z,52.67
2017-12-04T23:44:59.259Z,41.73
2017-12-04T23:47:26.958Z,39.83
2017-12-04T23:49:54.585Z,39.07
2017-12-04T23:52:22.310Z,40.20
2017-12-04T23:57:29.567Z,49.90
2017-12-04T23:59:57.191Z,38.47
